createdAt,value
2019-06-26T00:00:36.377Z,17.87
2019-06-26T00:03:04.482Z,15.50
2019-06-26T00:05:33.259Z,15.70
2019-06-26T00:08:01.675Z,16.23
2019-06-26T00:10:30.098Z,18.40
2019-06-26T00:12:58.511Z,19.73
2019-06-26T00:15:26.953Z,22.80
2019-06-26T00:17:55.418Z,19.67
2019-06-26T00:20:23.829Z,22.90
2019-06-26T00:22:52.242Z,18.53
2019-06-26T00:25:20.722Z,17.97
2019-06-26T00:27:49.133Z,15.07
2019-06-26T00:30:18.179Z,13.70
2019-06-26T00:32:46.588Z,15.17
2019-06-26T00:35:14.994Z,17.17
2019-06-26T00:37:43.413Z,21.10
2019-06-26T00:40:12.361Z,14.60
2019-06-26T00:42:40.815Z,16.57
2019-06-26T00:45:09.345Z,16.67
2019-06-26T00:47:37.738Z,14.97
2019-06-26T00:50:07.782Z,17.37
2019-06-26T00:52:36.190Z,19.30
2019-06-26T00:55:07.101Z,16.80
2019-06-26T00:57:35.594Z,26.70
2019-06-26T01:00:08.593Z,15.80
2019-06-26T01:02:37.094Z,21.03
2019-06-26T01:05:08.526Z,20.43
2019-06-26T01:07:37.002Z,15.63
2019-06-26T01:10:07.556Z,19.00
2019-06-26T01:12:35.952Z,17.70
2019-06-26T01:15:08.518Z,13.63
2019-06-26T01:17:36.933Z,16.60
2019-06-26T01:20:07.142Z,18.43
2019-06-26T01:22:38.242Z,14.30
2019-06-26T01:25:06.986Z,17.23
2019-06-26T01:27:35.404Z,10.47
2019-06-26T01:30:08.279Z,14.53
2019-06-26T01:32:36.683Z,13.37
2019-06-26T01:35:08.046Z,15.57
2019-06-26T01:37:36.460Z,18.00
2019-06-26T01:40:08.179Z,15.50
2019-06-26T01:42:36.577Z,16.07
2019-06-26T01:45:08.096Z,13.10
2019-06-26T01:47:36.506Z,17.47
2019-06-26T01:50:06.905Z,18.20
2019-06-26T01:52:35.387Z,16.80
2019-06-26T01:55:07.778Z,12.27
2019-06-26T01:57:36.186Z,20.77
2019-06-26T02:00:07.917Z,13.40
2019-06-26T02:02:36.305Z,18.00
2019-06-26T02:05:06.967Z,16.37
2019-06-26T02:07:35.434Z,19.90
2019-06-26T02:10:05.470Z,17.33
2019-06-26T02:12:33.880Z,16.00
2019-06-26T02:15:02.323Z,19.03
2019-06-26T02:17:30.763Z,14.13
2019-06-26T02:19:59.170Z,21.50
2019-06-26T02:22:27.578Z,19.20
2019-06-26T02:24:55.982Z,15.80
2019-06-26T02:27:24.395Z,18.13
2019-06-26T02:29:52.790Z,16.77
2019-06-26T02:32:21.195Z,19.43
2019-06-26T02:34:49.597Z,17.53
2019-06-26T02:37:17.994Z,15.80
2019-06-26T02:39:46.414Z,11.97
2019-06-26T02:42:14.871Z,14.77
2019-06-26T02:44:53.229Z,13.43
2019-06-26T02:47:20.042Z,17.53
2019-06-26T02:49:43.544Z,15.33
2019-06-26T02:52:11.950Z,17.27
2019-06-26T02:54:40.359Z,16.07
2019-06-26T02:57:08.775Z,15.37
2019-06-26T02:59:37.191Z,14.70
2019-06-26T03:02:05.649Z,13.33
2019-06-26T03:04:34.048Z,13.53
2019-06-26T03:07:02.484Z,14.10
2019-06-26T03:09:30.938Z,16.43
2019-06-26T03:11:59.336Z,12.83
2019-06-26T03:14:27.738Z,13.30
2019-06-26T03:16:56.149Z,14.63
2019-06-26T03:19:24.537Z,18.90
2019-06-26T03:21:52.941Z,17.70
2019-06-26T03:24:21.346Z,14.13
2019-06-26T03:26:49.758Z,18.00
2019-06-26T03:29:18.164Z,15.90
2019-06-26T03:31:46.570Z,17.77
2019-06-26T03:34:14.966Z,15.03
2019-06-26T03:36:43.373Z,17.87
2019-06-26T03:39:11.773Z,12.03
2019-06-26T03:41:40.180Z,15.73
2019-06-26T03:44:08.574Z,20.87
2019-06-26T03:46:36.986Z,21.40
2019-06-26T03:49:05.421Z,14.60
2019-06-26T03:51:34.099Z,15.37
2019-06-26T03:54:02.495Z,12.13
2019-06-26T03:56:31.170Z,14.03
2019-06-26T03:58:59.578Z,14.40
2019-06-26T04:01:27.965Z,20.23
2019-06-26T04:03:57.475Z,12.03
2019-06-26T04:06:26.146Z,14.67
2019-06-26T04:08:54.553Z,17.33
2019-06-26T04:11:22.958Z,13.73
2019-06-26T04:13:51.354Z,16.63
2019-06-26T04:16:19.761Z,20.77
2019-06-26T04:18:48.148Z,18.93
2019-06-26T04:21:16.555Z,18.63
2019-06-26T04:23:44.980Z,14.30
2019-06-26T04:26:13.353Z,21.67
2019-06-26T04:28:41.766Z,19.50
2019-06-26T04:31:10.163Z,19.97
2019-06-26T04:33:38.565Z,16.63
2019-06-26T04:36:07.541Z,20.13
2019-06-26T04:38:35.938Z,17.60
2019-06-26T04:41:05.088Z,17.30
2019-06-26T04:43:33.476Z,19.37
2019-06-26T04:46:01.893Z,24.60
2019-06-26T04:48:30.296Z,20.83
2019-06-26T04:50:58.697Z,23.00
2019-06-26T04:53:27.096Z,23.50
2019-06-26T04:55:55.505Z,18.90
2019-06-26T04:58:23.896Z,17.67
2019-06-26T05:00:52.350Z,19.37
2019-06-26T05:03:20.782Z,20.30
2019-06-26T05:05:49.180Z,21.17
2019-06-26T05:08:17.591Z,19.57
2019-06-26T05:10:45.997Z,18.73
2019-06-26T05:13:14.402Z,20.33
2019-06-26T05:15:42.837Z,24.13
2019-06-26T05:18:11.257Z,23.00
2019-06-26T05:20:39.657Z,22.67
2019-06-26T05:23:08.061Z,31.13
2019-06-26T05:25:36.464Z,21.53
2019-06-26T05:28:08.115Z,22.63
2019-06-26T05:30:34.990Z,20.33
2019-06-26T05:33:03.401Z,18.83
2019-06-26T05:35:34.918Z,20.53
2019-06-26T05:38:01.960Z,21.67
2019-06-26T05:40:30.402Z,22.53
2019-06-26T05:42:58.797Z,21.97
2019-06-26T05:45:27.201Z,20.00
2019-06-26T05:47:55.702Z,20.13
2019-06-26T05:50:24.165Z,20.00
2019-06-26T05:52:52.569Z,22.87
2019-06-26T05:55:20.996Z,17.17
2019-06-26T05:57:49.385Z,17.23
2019-06-26T06:00:19.383Z,16.93
2019-06-26T06:02:47.788Z,18.00
2019-06-26T06:05:16.317Z,14.03
2019-06-26T06:07:44.729Z,15.30
2019-06-26T06:10:13.253Z,12.97
2019-06-26T06:12:41.668Z,12.93
2019-06-26T06:15:13.101Z,12.80
2019-06-26T06:17:41.679Z,14.27
2019-06-26T06:20:10.742Z,14.43
2019-06-26T06:22:39.137Z,14.60
2019-06-26T06:25:08.071Z,12.70
2019-06-26T06:27:36.468Z,11.37
2019-06-26T06:30:08.221Z,12.87
2019-06-26T06:32:36.634Z,12.43
2019-06-26T06:35:06.860Z,14.17
2019-06-26T06:37:35.273Z,14.37
2019-06-26T06:40:06.001Z,9.23
2019-06-26T06:42:34.401Z,8.03
2019-06-26T06:45:03.075Z,9.03
2019-06-26T06:47:31.461Z,8.20
2019-06-26T06:49:59.854Z,9.50
2019-06-26T06:52:28.243Z,9.10
2019-06-26T06:54:56.640Z,8.50
2019-06-26T06:57:25.077Z,10.00
2019-06-26T06:59:53.490Z,8.73
2019-06-26T07:02:21.883Z,8.00
2019-06-26T07:04:50.274Z,9.43
2019-06-26T07:07:18.682Z,10.13
2019-06-26T07:09:47.077Z,8.60
2019-06-26T07:12:15.486Z,9.73
2019-06-26T07:14:43.930Z,10.47
2019-06-26T07:17:20.771Z,9.30
2019-06-26T07:19:42.437Z,9.40
2019-06-26T07:22:10.840Z,10.27
2019-06-26T07:24:39.233Z,8.33
2019-06-26T07:27:07.638Z,9.30
2019-06-26T07:29:36.037Z,11.37
2019-06-26T07:32:04.493Z,9.50
2019-06-26T07:34:32.897Z,12.97
2019-06-26T07:37:01.291Z,13.60
2019-06-26T07:39:29.693Z,11.00
2019-06-26T07:41:58.091Z,12.57
2019-06-26T07:44:26.497Z,10.17
2019-06-26T07:46:54.892Z,10.37
2019-06-26T07:49:23.310Z,12.80
2019-06-26T07:51:51.759Z,11.07
2019-06-26T07:54:20.179Z,11.90
2019-06-26T07:56:48.558Z,11.47
2019-06-26T07:59:17.009Z,12.23
2019-06-26T08:01:45.378Z,14.87
2019-06-26T08:04:13.779Z,12.13
2019-06-26T08:06:42.178Z,10.77
2019-06-26T08:09:10.577Z,11.13
2019-06-26T08:11:38.966Z,14.87
2019-06-26T08:14:07.353Z,11.40
2019-06-26T08:16:35.760Z,10.40
2019-06-26T08:19:04.158Z,11.90
2019-06-26T08:21:32.557Z,14.47
2019-06-26T08:24:00.948Z,13.90
2019-06-26T08:26:29.346Z,14.83
2019-06-26T08:28:57.742Z,12.07
2019-06-26T08:31:28.874Z,12.03
2019-06-26T08:33:57.276Z,11.23
2019-06-26T08:36:26.009Z,10.07
2019-06-26T08:38:54.407Z,14.03
2019-06-26T08:41:22.812Z,15.47
2019-06-26T08:43:51.200Z,13.53
2019-06-26T08:46:19.600Z,12.30
2019-06-26T08:48:51.701Z,14.97
2019-06-26T08:51:18.113Z,14.80
2019-06-26T08:53:46.517Z,13.43
2019-06-26T08:56:14.921Z,13.83
2019-06-26T08:58:43.321Z,17.63
2019-06-26T09:01:11.736Z,16.93
2019-06-26T09:03:42.123Z,16.57
2019-06-26T09:06:10.242Z,12.27
2019-06-26T09:08:38.655Z,13.00
2019-06-26T09:11:07.058Z,10.80
2019-06-26T09:13:35.802Z,11.70
2019-06-26T09:16:04.285Z,16.47
2019-06-26T09:18:35.837Z,14.87
2019-06-26T09:21:02.823Z,16.77
2019-06-26T09:23:31.407Z,12.17
2019-06-26T09:25:59.909Z,15.33
2019-06-26T09:28:28.310Z,13.30
2019-06-26T09:30:56.706Z,11.67
2019-06-26T09:33:25.109Z,15.93
2019-06-26T09:35:53.501Z,11.03
2019-06-26T09:38:21.907Z,9.53
2019-06-26T09:40:50.301Z,10.87
2019-06-26T09:43:18.703Z,11.17
2019-06-26T09:45:47.090Z,11.97
2019-06-26T09:48:15.498Z,20.47
2019-06-26T09:50:43.937Z,10.90
2019-06-26T09:53:12.376Z,11.73
2019-06-26T09:55:40.813Z,13.77
2019-06-26T09:58:12.198Z,11.03
2019-06-26T10:00:39.366Z,10.70
2019-06-26T10:03:07.777Z,11.17
2019-06-26T10:05:36.185Z,13.20
2019-06-26T10:08:04.597Z,17.10
2019-06-26T10:10:33.070Z,10.67
2019-06-26T10:13:01.465Z,18.27
2019-06-26T10:15:29.862Z,18.20
2019-06-26T10:17:58.288Z,12.50
2019-06-26T10:20:26.652Z,11.93
2019-06-26T10:22:55.077Z,10.57
2019-06-26T10:25:23.538Z,15.47
2019-06-26T10:27:51.928Z,15.80
2019-06-26T10:30:20.469Z,14.50
2019-06-26T10:32:48.866Z,13.73
2019-06-26T10:35:19.102Z,12.90
2019-06-26T10:37:47.493Z,16.87
2019-06-26T10:40:16.721Z,20.43
2019-06-26T10:42:45.305Z,14.00
2019-06-26T10:45:14.040Z,11.33
2019-06-26T10:47:42.475Z,21.67
2019-06-26T10:50:11.227Z,12.80
2019-06-26T10:52:39.617Z,13.33
2019-06-26T10:55:08.644Z,12.83
2019-06-26T10:57:37.050Z,16.13
2019-06-26T11:00:10.549Z,13.70
2019-06-26T11:02:39.103Z,15.93
2019-06-26T11:05:08.794Z,18.63
2019-06-26T11:07:37.277Z,17.37
2019-06-26T11:10:09.229Z,17.90
2019-06-26T11:12:37.638Z,16.10
2019-06-26T11:15:09.154Z,11.97
2019-06-26T11:17:37.635Z,11.40
2019-06-26T11:20:07.970Z,9.83
2019-06-26T11:22:36.802Z,10.33
2019-06-26T11:25:07.311Z,12.90
2019-06-26T11:27:35.936Z,7.47
2019-06-26T11:30:09.451Z,9.83
2019-06-26T11:32:37.982Z,11.27
2019-06-26T11:35:08.614Z,16.53
2019-06-26T11:37:37.213Z,15.17
2019-06-26T11:40:06.654Z,14.53
2019-06-26T11:42:35.062Z,13.50
2019-06-26T11:45:05.209Z,9.57
2019-06-26T11:47:33.610Z,13.00
2019-06-26T11:50:02.027Z,8.83
2019-06-26T11:52:30.604Z,13.87
2019-06-26T11:55:02.963Z,13.63
2019-06-26T11:57:29.116Z,8.57
2019-06-26T11:59:57.521Z,9.00
2019-06-26T12:02:25.930Z,5.33
2019-06-26T12:04:54.653Z,7.47
2019-06-26T12:07:23.038Z,6.97
2019-06-26T12:09:51.468Z,7.17
2019-06-26T12:12:19.990Z,7.90
2019-06-26T12:14:48.400Z,11.97
2019-06-26T12:17:16.795Z,7.20
2019-06-26T12:19:45.277Z,14.43
2019-06-26T12:22:13.676Z,8.43
2019-06-26T12:24:42.072Z,12.30
2019-06-26T12:27:10.465Z,7.67
2019-06-26T12:29:38.853Z,7.97
2019-06-26T12:32:07.255Z,5.63
2019-06-26T12:34:35.639Z,8.10
2019-06-26T12:37:04.050Z,9.90
2019-06-26T12:39:32.440Z,6.47
2019-06-26T12:42:00.946Z,11.80
2019-06-26T12:44:29.341Z,9.60
2019-06-26T12:46:57.744Z,8.67
2019-06-26T12:49:26.135Z,6.63
2019-06-26T12:51:54.521Z,6.77
2019-06-26T12:54:22.925Z,10.60
2019-06-26T12:56:51.333Z,18.13
2019-06-26T12:59:19.725Z,7.60
2019-06-26T13:01:48.129Z,10.17
2019-06-26T13:04:16.517Z,12.63
2019-06-26T13:06:45.384Z,7.90
2019-06-26T13:09:13.770Z,9.77
2019-06-26T13:11:42.181Z,6.37
2019-06-26T13:14:10.577Z,8.17
2019-06-26T13:16:38.979Z,8.60
2019-06-26T13:19:07.389Z,10.83
2019-06-26T13:21:35.819Z,9.73
2019-06-26T13:24:04.262Z,9.30
2019-06-26T13:26:32.668Z,6.30
2019-06-26T13:29:01.055Z,8.30
2019-06-26T13:31:29.460Z,11.67
2019-06-26T13:33:57.838Z,9.10
2019-06-26T13:36:26.245Z,6.27
2019-06-26T13:38:54.641Z,4.47
2019-06-26T13:41:23.046Z,8.73
2019-06-26T13:43:51.436Z,8.03
2019-06-26T13:46:19.909Z,6.50
2019-06-26T13:48:48.313Z,6.03
2019-06-26T13:51:16.709Z,6.63
2019-06-26T13:53:45.096Z,8.43
2019-06-26T13:56:13.501Z,4.43
2019-06-26T13:58:41.998Z,5.17
2019-06-26T14:01:10.393Z,5.60
2019-06-26T14:03:38.791Z,4.67
2019-06-26T14:06:07.172Z,8.67
2019-06-26T14:08:35.573Z,8.37
2019-06-26T14:11:07.323Z,9.93
2019-06-26T14:13:34.077Z,8.80
2019-06-26T14:16:02.482Z,7.27
2019-06-26T14:18:30.882Z,5.53
2019-06-26T14:20:59.281Z,7.27
2019-06-26T14:23:27.657Z,4.63
2019-06-26T14:25:56.065Z,7.70
2019-06-26T14:28:24.454Z,8.87
2019-06-26T14:30:52.859Z,7.73
2019-06-26T14:33:21.244Z,9.47
2019-06-26T14:35:49.651Z,9.13
2019-06-26T14:38:18.045Z,7.93
2019-06-26T14:40:46.448Z,8.97
2019-06-26T14:43:14.917Z,5.00
2019-06-26T14:45:43.312Z,7.90
2019-06-26T14:48:11.713Z,6.67
2019-06-26T14:50:40.115Z,6.37
2019-06-26T14:53:08.497Z,6.53
2019-06-26T14:55:36.908Z,8.70
2019-06-26T14:58:05.292Z,5.73
2019-06-26T15:00:33.693Z,5.67
2019-06-26T15:03:02.093Z,5.00
2019-06-26T15:05:30.500Z,4.17
2019-06-26T15:07:58.892Z,6.13
2019-06-26T15:10:27.308Z,5.47
2019-06-26T15:12:55.686Z,8.53
2019-06-26T15:15:24.097Z,8.27
2019-06-26T15:17:52.502Z,6.20
2019-06-26T15:20:20.905Z,4.23
2019-06-26T15:22:49.303Z,6.87
2019-06-26T15:25:17.845Z,7.23
2019-06-26T15:27:46.233Z,9.47
2019-06-26T15:30:16.688Z,4.70
2019-06-26T15:32:45.094Z,5.90
2019-06-26T15:35:13.553Z,5.03
2019-06-26T15:37:44.718Z,7.17
2019-06-26T15:40:13.860Z,6.73
2019-06-26T15:42:42.428Z,6.97
2019-06-26T15:45:12.730Z,6.70
2019-06-26T15:47:41.139Z,9.23
2019-06-26T15:50:10.765Z,4.67
2019-06-26T15:52:39.513Z,3.57
2019-06-26T15:55:08.635Z,7.77
2019-06-26T15:57:37.047Z,6.90
2019-06-26T16:00:09.955Z,6.20
2019-06-26T16:02:38.358Z,8.63
2019-06-26T16:05:07.886Z,5.80
2019-06-26T16:07:36.294Z,6.70
2019-06-26T16:10:08.265Z,6.63
2019-06-26T16:12:36.661Z,8.00
2019-06-26T16:15:07.009Z,5.30
2019-06-26T16:17:55.326Z,3.30
2019-06-26T16:20:23.717Z,7.90
2019-06-26T16:22:52.118Z,7.63
2019-06-26T16:25:20.525Z,6.23
2019-06-26T16:28:04.360Z,10.40
2019-06-26T16:30:19.304Z,3.30
2019-06-26T16:32:47.690Z,12.50
2019-06-26T16:35:16.833Z,6.80
2019-06-26T16:37:45.522Z,14.03
2019-06-26T16:40:14.166Z,7.87
2019-06-26T16:42:42.564Z,4.47
2019-06-26T16:45:11.114Z,12.97
2019-06-26T16:47:39.521Z,11.40
2019-06-26T16:50:08.777Z,4.77
2019-06-26T16:52:48.568Z,6.23
2019-06-26T16:55:08.208Z,5.77
2019-06-26T16:57:36.632Z,6.50
2019-06-26T17:00:10.246Z,13.20
2019-06-26T17:02:38.875Z,13.20
2019-06-26T17:05:07.464Z,5.37
2019-06-26T17:07:35.854Z,7.17
2019-06-26T17:10:06.697Z,7.93
2019-06-26T17:12:35.354Z,3.90
2019-06-26T17:15:05.576Z,2.90
2019-06-26T17:17:33.979Z,7.33
2019-06-26T17:20:02.383Z,6.70
2019-06-26T17:22:30.794Z,5.80
2019-06-26T17:24:59.198Z,6.37
2019-06-26T17:27:27.612Z,5.40
2019-06-26T17:29:56.057Z,6.77
2019-06-26T17:32:24.515Z,7.47
2019-06-26T17:34:52.906Z,7.03
2019-06-26T17:37:21.316Z,7.37
2019-06-26T17:39:49.712Z,8.47
2019-06-26T17:42:18.110Z,10.10
2019-06-26T17:44:46.515Z,3.57
2019-06-26T17:47:14.911Z,5.43
2019-06-26T17:49:43.306Z,4.87
2019-06-26T17:52:11.721Z,6.33
2019-06-26T17:54:40.134Z,4.00
2019-06-26T17:57:11.166Z,7.13
2019-06-26T17:59:39.584Z,7.20
2019-06-26T18:02:07.987Z,4.70
2019-06-26T18:04:36.389Z,27.17
2019-06-26T18:07:05.538Z,6.87
2019-06-26T18:09:33.922Z,12.00
2019-06-26T18:12:02.331Z,4.73
2019-06-26T18:14:30.736Z,7.20
2019-06-26T18:16:59.130Z,5.00
2019-06-26T18:19:27.538Z,3.63
2019-06-26T18:21:55.931Z,4.10
2019-06-26T18:24:24.346Z,2.43
2019-06-26T18:26:52.739Z,7.63
2019-06-26T18:29:21.142Z,4.93
2019-06-26T18:31:49.538Z,6.50
2019-06-26T18:34:17.947Z,4.63
2019-06-26T18:36:46.379Z,4.70
2019-06-26T18:39:14.808Z,4.20
2019-06-26T18:41:43.205Z,4.50
2019-06-26T18:44:11.611Z,1.73
2019-06-26T18:46:40.041Z,3.97
2019-06-26T18:49:08.482Z,4.83
2019-06-26T18:51:36.886Z,5.17
2019-06-26T18:54:05.565Z,3.60
2019-06-26T18:56:33.964Z,4.93
2019-06-26T18:59:02.345Z,7.13
2019-06-26T19:01:30.751Z,6.33
2019-06-26T19:03:59.149Z,4.90
2019-06-26T19:06:27.545Z,4.40
2019-06-26T19:08:55.938Z,1.47
2019-06-26T19:11:24.343Z,3.47
2019-06-26T19:13:52.739Z,5.87
2019-06-26T19:16:21.131Z,4.70
2019-06-26T19:18:49.539Z,4.93
2019-06-26T19:21:17.938Z,3.93
2019-06-26T19:23:46.570Z,5.50
2019-06-26T19:26:14.971Z,2.97
2019-06-26T19:28:43.363Z,3.17
2019-06-26T19:31:11.777Z,7.20
2019-06-26T19:33:40.178Z,5.33
2019-06-26T19:36:08.582Z,7.33
2019-06-26T19:38:37.047Z,3.93
2019-06-26T19:41:08.539Z,5.13
2019-06-26T19:43:35.674Z,2.90
2019-06-26T19:46:04.152Z,4.03
2019-06-26T19:48:32.549Z,4.97
2019-06-26T19:51:00.951Z,5.10
2019-06-26T19:53:29.343Z,3.07
2019-06-26T19:55:57.734Z,4.07
2019-06-26T19:58:26.139Z,3.27
2019-06-26T20:00:54.548Z,9.13
2019-06-26T20:03:23.007Z,4.57
2019-06-26T20:05:51.416Z,3.57
2019-06-26T20:08:19.802Z,3.07
2019-06-26T20:10:48.283Z,4.93
2019-06-26T20:13:16.680Z,3.90
2019-06-26T20:15:45.081Z,4.33
2019-06-26T20:18:13.482Z,1.57
2019-06-26T20:20:41.877Z,6.43
2019-06-26T20:23:10.273Z,2.97
2019-06-26T20:25:38.946Z,5.67
2019-06-26T20:28:07.341Z,1.93
2019-06-26T20:30:35.762Z,4.33
2019-06-26T20:33:04.377Z,2.30
2019-06-26T20:35:32.780Z,3.23
2019-06-26T20:38:01.185Z,3.93
2019-06-26T20:40:29.583Z,2.93
2019-06-26T20:42:57.983Z,3.57
2019-06-26T20:45:26.453Z,3.60
2019-06-26T20:47:54.859Z,2.43
2019-06-26T20:50:23.243Z,7.57
2019-06-26T20:52:51.653Z,3.13
2019-06-26T20:55:20.047Z,7.63
2019-06-26T20:57:48.446Z,1.97
2019-06-26T21:00:16.852Z,2.07
2019-06-26T21:02:45.251Z,3.17
2019-06-26T21:05:13.785Z,5.87
2019-06-26T21:07:42.210Z,3.40
2019-06-26T21:10:12.222Z,3.37
2019-06-26T21:12:40.614Z,3.77
2019-06-26T21:15:09.665Z,3.77
2019-06-26T21:17:38.058Z,3.37
2019-06-26T21:20:06.947Z,9.97
2019-06-26T21:22:35.338Z,3.40
2019-06-26T21:25:17.514Z,4.63
2019-06-26T21:27:36.306Z,5.07
2019-06-26T21:30:06.211Z,3.30
2019-06-26T21:32:34.618Z,1.53
2019-06-26T21:35:03.082Z,4.33
2019-06-26T21:37:31.473Z,5.00
2019-06-26T21:39:59.880Z,6.80
2019-06-26T21:42:28.304Z,3.83
2019-06-26T21:44:56.691Z,4.67
2019-06-26T21:47:25.085Z,6.93
2019-06-26T21:49:53.481Z,4.93
2019-06-26T21:52:21.881Z,2.70
2019-06-26T21:54:50.273Z,3.83
2019-06-26T21:57:18.678Z,3.67
2019-06-26T21:59:47.110Z,3.10
2019-06-26T22:02:15.505Z,6.00
2019-06-26T22:04:43.910Z,4.87
2019-06-26T22:07:12.301Z,2.23
2019-06-26T22:09:40.713Z,5.87
2019-06-26T22:12:09.106Z,6.77
2019-06-26T22:14:37.498Z,5.67
2019-06-26T22:17:05.897Z,4.40
2019-06-26T22:19:34.290Z,6.43
2019-06-26T22:22:02.705Z,7.27
2019-06-26T22:24:31.120Z,2.93
2019-06-26T22:26:59.515Z,2.07
2019-06-26T22:29:27.998Z,3.93
2019-06-26T22:31:56.465Z,7.47
2019-06-26T22:34:24.876Z,4.40
2019-06-26T22:36:53.315Z,9.27
2019-06-26T22:39:21.707Z,2.13
2019-06-26T22:41:50.109Z,7.67
2019-06-26T22:44:18.548Z,1.80
2019-06-26T22:46:46.951Z,5.13
2019-06-26T22:49:15.438Z,9.87
2019-06-26T22:51:44.080Z,3.10
2019-06-26T22:54:12.499Z,6.17
2019-06-26T22:56:40.909Z,4.37
2019-06-26T22:59:09.316Z,5.27
2019-06-26T23:01:37.713Z,5.13
2019-06-26T23:04:06.106Z,3.77
2019-06-26T23:06:37.424Z,8.13
2019-06-26T23:09:06.274Z,5.33
2019-06-26T23:11:34.819Z,3.07
2019-06-26T23:14:03.224Z,4.77
2019-06-26T23:16:31.617Z,6.13
2019-06-26T23:19:00.034Z,6.83
2019-06-26T23:21:28.430Z,2.80
2019-06-26T23:23:56.923Z,4.60
2019-06-26T23:26:25.320Z,4.47
2019-06-26T23:28:53.718Z,6.03
2019-06-26T23:31:22.111Z,4.33
2019-06-26T23:33:50.514Z,7.97
2019-06-26T23:36:18.913Z,4.33
2019-06-26T23:38:47.314Z,4.30
2019-06-26T23:41:18.010Z,7.00
2019-06-26T23:43:46.146Z,4.83
2019-06-26T23:46:14.901Z,3.57
2019-06-26T23:48:45.648Z,8.57
2019-06-26T23:51:13.434Z,9.40
2019-06-26T23:53:41.845Z,4.73
2019-06-26T23:56:10.246Z,5.60
2019-06-26T23:58:38.642Z,12.23
